Effingham, Kansas
Current Conditions -  °F | °C
As of 1:30 AM on Thursday 18 Dec 2014 (Local Time) from KSTJ Reporting Station
Light Snow Light Snow  
Wind Chill: 29°   Ceiling: 3100
Heat Index: 29°   Visibility: 5mi
Dew Point: 24°   Wind: 3mph
Humidity: 82%   Direction: 80°E
Pressure: 30.25"   Gusts: NA
Location:  39.52°N, 95.4°W
Report Text: KSTJ 180730Z AUTO 08003KT 5SM -SN OVC031 M02/M04 A3025 RMK AO2 P0000 T10171044
Loading
Personal Weather Stations






























Interactive Weather Map New forecast layout! Learn more

10-Day Weather Forecast

Advertisements
Track Severe Weather on mobile